Wyndham Hills, Pennsylvania
Current Conditions -  °F | °C
As of 5:53 PM on Saturday 25 Oct 2014 (Local Time) from KTHV Reporting Station
Clear Clear  
Wind Chill: 67°   Ceiling: Unl
Heat Index: 67°   Visibility: 10mi
Dew Point: 43°   Wind: 7mph
Humidity: 42%   Direction: 230°SW
Pressure: 29.7"   Gusts: NA
Location:  39.9503°N, 76.7105°W
Report Text: KTHV 252153Z AUTO 23006KT 10SM CLR 19/06 A2970 RMK AO2 SLP058 T01940061
Loading
Personal Weather Stations






























Interactive Weather Map
Tropical Storm Tracking
New forecast layout! Learn more

10-Day Weather Forecast

Advertisements
Track Severe Weather on mobile